Time;durP1;ratioP1;P1;durP2;ratioP2;P2;SDS_P1;SDS_P2;PMS_P1;PMS_P2;Temp;Humidity;BMP_temperature;BMP_pressure;BME280_temperature;BME280_humidity;BME280_pressure;Samples;Min_cycle;Max_cycle;Signal;HPM_P1;HPM_P2
2023/12/10 00:16:31;;;;;;;38.55;13.40;;;;;;;2.09;85.62;97493.59;4406492;32;20152;-77
2023/12/10 00:25:11;;;;;;;49.70;15.40;;;;;;;1.77;90.18;97502.59;4409186;32;20188;-78
2023/12/10 00:28:03;;;;;;;43.75;14.80;;;;;;;2.06;88.46;97488.56;4409710;32;20441;-78
2023/12/10 00:34:13;;;;;;;35.80;12.40;;;;;;;2.07;87.22;97519.06;4409426;32;20104;-77
2023/12/10 00:36:41;;;;;;;36.78;13.62;;;;;;;2.59;84.47;97508.75;4409440;32;20421;-78
2023/12/10 00:43:01;;;;;;;40.75;14.95;;;;;;;2.06;85.69;97514.84;4409350;32;20378;-78
2023/12/10 00:49:55;;;;;;;44.75;14.60;;;;;;;3.07;80.95;97533.25;4409321;32;20100;-78
2023/12/10 00:55:52;;;;;;;;;;;;;;;;;;;;;
2023/12/10 01:05:35;;;;;;;46.63;15.75;;;;;;;1.93;88.75;97493.87;4523845;26;20125;-79
2023/12/10 01:38:59;;;;;;;43.03;13.73;;;;;;;2.07;83.97;97421.53;4878418;26;20480;-78
2023/12/10 01:42:17;;;;;;;39.78;13.95;;;;;;;3.32;77.48;97419.69;4393443;32;20148;-78
2023/12/10 01:47:19;;;;;;;42.90;13.05;;;;;;;3.81;73.66;97405.69;4554006;26;20146;-77
2023/12/10 01:56:38;;;;;;;35.38;11.88;;;;;;;4.04;71.92;97380.41;4703330;26;20397;-78
2023/12/10 02:05:47;;;;;;;37.35;12.27;;;;;;;2.32;82.05;97369.25;4535120;26;21503;-78
2023/12/10 02:15:27;;;;;;;39.97;13.68;;;;;;;3.62;74.75;97379.00;4403961;26;20478;-78
2023/12/10 02:20:58;;;;;;;44.30;14.35;;;;;;;3.11;78.57;97364.94;4380245;32;20122;-77
2023/12/10 02:23:50;;;;;;;41.37;15.38;;;;;;;3.22;77.89;97356.19;4380421;32;20124;-77
2023/12/10 02:26:17;;;;;;;42.70;14.85;;;;;;;3.36;76.36;97328.63;4388143;32;20138;-77
2023/12/10 02:32:18;;;;;;;40.83;14.02;;;;;;;3.12;78.30;97365.78;4395056;32;20105;-78
2023/12/10 02:47:07;;;;;;;29.85;11.88;;;;;;;3.16;76.71;97350.38;4406952;32;20108;-79
2023/12/10 02:57:09;;;;;;;29.92;11.55;;;;;;;3.05;79.10;97344.69;4410067;32;20113;-79
2023/12/10 03:00:29;;;;;;;25.80;10.13;;;;;;;4.05;74.46;97354.00;4396376;32;20491;-79
2023/12/10 03:02:56;;;;;;;26.73;8.52;;;;;;;4.58;69.85;97355.91;4410310;32;20420;-79
2023/12/10 03:08:06;;;;;;;23.12;8.35;;;;;;;4.65;68.23;97347.97;4398884;27;20185;-79
2023/12/10 03:10:45;;;;;;;22.98;8.63;;;;;;;4.82;68.12;97339.81;4395083;32;20190;-79
2023/12/10 03:19:44;;;;;;;25.92;8.98;;;;;;;6.05;62.78;97327.13;4409984;32;20200;-79
2023/12/10 03:32:03;;;;;;;25.12;9.02;;;;;;;5.19;63.99;97347.13;4395027;32;20233;-79
2023/12/10 03:34:48;;;;;;;27.80;9.38;;;;;;;5.04;65.20;97352.75;4394795;32;20450;-79
2023/12/10 03:41:30;;;;;;;22.05;8.82;;;;;;;4.87;65.42;97350.72;4409884;32;20116;-79
2023/12/10 03:44:41;;;;;;;24.95;8.63;;;;;;;4.56;66.81;97344.84;4410018;32;20116;-79
2023/12/10 03:47:08;;;;;;;22.10;7.90;;;;;;;4.10;68.80;97355.56;4409883;32;20419;-79
2023/12/10 03:49:51;;;;;;;21.60;8.63;;;;;;;4.90;65.35;97349.81;4409704;32;20109;-79
2023/12/10 03:52:24;;;;;;;21.42;8.30;;;;;;;4.48;66.21;97354.50;4409992;32;20170;-79
2023/12/10 03:58:18;;;;;;;18.58;7.32;;;;;;;5.05;65.56;97362.09;5271899;26;20058;-78
2023/12/10 04:13:18;;;;;;;22.77;8.75;;;;;;;5.93;61.90;97355.75;4379543;32;20109;-79
2023/12/10 04:15:52;;;;;;;25.00;9.63;;;;;;;5.74;61.63;97345.31;4409863;26;20107;-79
2023/12/10 04:21:48;;;;;;;24.20;9.88;;;;;;;5.48;62.30;97347.91;4379267;32;20109;-79
2023/12/10 04:24:15;;;;;;;24.80;9.35;;;;;;;6.04;60.92;97340.84;4374277;32;158133;-79
2023/12/10 04:38:37;;;;;;;29.37;9.93;;;;;;;5.36;64.08;97321.00;4739141;27;20158;-79
2023/12/10 04:41:04;;;;;;;29.83;11.70;;;;;;;5.72;61.65;97312.94;4394378;32;20090;-79
2023/12/10 04:43:31;;;;;;;27.48;11.18;;;;;;;5.70;61.21;97313.00;4394314;32;20104;-79
2023/12/10 04:48:40;;;;;;;28.60;10.40;;;;;;;5.11;62.76;97317.59;4947552;26;20103;-79
2023/12/10 04:51:07;;;;;;;24.12;10.20;;;;;;;5.35;62.74;97323.63;4394223;32;20129;-79
2023/12/10 04:53:34;;;;;;;28.52;10.15;;;;;;;5.51;62.54;97322.19;4393922;32;20095;-79
2023/12/10 04:56:01;;;;;;;26.02;9.80;;;;;;;5.08;63.97;97330.47;4393742;32;20113;-79
2023/12/10 04:58:29;;;;;;;26.83;9.93;;;;;;;5.49;62.98;97336.78;4409032;32;20132;-79
2023/12/10 05:00:56;;;;;;;24.15;10.05;;;;;;;5.61;62.94;97336.34;4392907;32;20102;-79
2023/12/10 05:03:23;;;;;;;30.15;10.77;;;;;;;5.39;62.84;97333.69;4407942;32;20125;-79
2023/12/10 05:05:50;;;;;;;28.80;10.25;;;;;;;5.84;62.22;97337.28;4408736;32;20090;-79
2023/12/10 05:17:18;;;;;;;28.38;10.75;;;;;;;6.06;60.39;97357.00;4507000;27;20688;-79
2023/12/10 05:19:45;;;;;;;27.33;10.13;;;;;;;5.32;62.84;97355.25;4395291;32;20106;-79
2023/12/10 05:22:13;;;;;;;27.75;10.68;;;;;;;5.47;62.08;97366.69;4395867;32;20584;-79
2023/12/10 05:24:40;;;;;;;27.05;11.27;;;;;;;5.43;62.71;97367.69;4395891;32;20079;-79
2023/12/10 05:27:08;;;;;;;31.92;11.65;;;;;;;5.98;60.94;97374.38;4537672;27;20201;-79
2023/12/10 05:29:35;;;;;;;29.63;12.90;;;;;;;6.68;58.60;97382.03;4395841;32;20128;-79
2023/12/10 05:32:03;;;;;;;29.30;11.68;;;;;;;6.32;59.73;97378.28;4395739;32;20343;-79
2023/12/10 05:34:29;;;;;;;31.83;11.18;;;;;;;6.34;59.56;97379.06;4395491;32;20108;-79
2023/12/10 05:36:57;;;;;;;30.52;12.25;;;;;;;6.74;58.04;97373.28;4526348;27;20269;-77
2023/12/10 05:39:25;;;;;;;25.23;9.98;;;;;;;6.78;58.22;97366.31;4395468;32;20456;-77
2023/12/10 05:41:52;;;;;;;27.17;10.82;;;;;;;6.99;57.06;97362.91;4395334;32;20171;-77
2023/12/10 05:44:19;;;;;;;28.12;10.55;;;;;;;7.29;55.66;97368.56;4395641;32;20442;-80
2023/12/10 05:49:29;;;;;;;25.30;11.10;;;;;;;6.57;58.17;97373.91;4657914;27;20098;-80
2023/12/10 05:51:56;;;;;;;26.20;11.12;;;;;;;6.86;57.38;97371.97;4395693;32;20098;-80
2023/12/10 05:54:23;;;;;;;30.80;12.90;;;;;;;6.82;57.45;97370.44;4395341;32;20104;-80
2023/12/10 05:56:50;;;;;;;30.95;12.85;;;;;;;6.27;59.01;97370.78;4397028;32;20460;-81
2023/12/10 05:59:17;;;;;;;28.15;13.27;;;;;;;6.66;58.31;97375.28;4410887;32;20090;-80
2023/12/10 06:01:44;;;;;;;33.28;13.65;;;;;;;6.65;58.40;97369.34;4410579;32;20146;-81
2023/12/10 06:04:11;;;;;;;32.42;13.95;;;;;;;6.80;58.33;97374.75;4410410;32;20112;-80
2023/12/10 06:09:14;;;;;;;27.08;10.75;;;;;;;7.30;57.53;97383.03;4422657;27;20165;-80
2023/12/10 06:11:41;;;;;;;23.90;8.55;;;;;;;7.36;56.82;97387.13;4381968;32;20160;-80
2023/12/10 06:14:09;;;;;;;22.13;8.73;;;;;;;7.60;55.94;97391.25;4395550;32;20082;-80
2023/12/10 06:16:36;;;;;;;24.35;9.23;;;;;;;7.88;55.29;97392.66;4395073;32;20513;-81
2023/12/10 06:19:04;;;;;;;23.23;8.23;;;;;;;7.49;56.16;97404.50;4467558;27;20138;-80
2023/12/10 06:21:32;;;;;;;19.08;7.70;;;;;;;8.04;54.82;97411.66;4395612;32;20118;-78
2023/12/10 06:23:59;;;;;;;19.70;7.45;;;;;;;8.43;52.32;97416.84;4381613;32;20396;-79
2023/12/10 06:26:26;;;;;;;23.87;9.35;;;;;;;7.78;53.80;97413.59;4395203;32;20129;-78
2023/12/10 06:28:54;;;;;;;21.15;8.10;;;;;;;7.61;55.02;97410.03;4519453;27;20393;-79
2023/12/10 06:38:07;;;;;;;19.05;7.62;;;;;;;7.73;55.28;97414.66;4538115;27;20144;-79
2023/12/10 06:40:34;;;;;;;18.45;7.75;;;;;;;7.83;54.96;97427.06;4395599;32;20106;-79
2023/12/10 06:43:01;;;;;;;22.77;8.25;;;;;;;7.68;55.63;97426.88;4395527;32;20116;-79
2023/12/10 06:45:28;;;;;;;21.35;8.10;;;;;;;7.54;56.30;97417.16;4394722;32;20087;-79
2023/12/10 06:47:55;;;;;;;23.55;8.25;;;;;;;7.52;56.02;97426.66;4385237;32;20122;-79
2023/12/10 06:50:23;;;;;;;24.25;8.52;;;;;;;7.33;56.95;97418.00;4409046;32;20109;-79
2023/12/10 06:52:49;;;;;;;23.45;9.23;;;;;;;8.55;53.62;97436.88;4410196;32;20113;-78
2023/12/10 06:55:17;;;;;;;21.08;8.70;;;;;;;7.50;56.41;97431.00;4410324;32;20108;-77
2023/12/10 06:57:44;;;;;;;21.50;8.43;;;;;;;7.78;55.25;97431.56;4409930;32;20584;-78
2023/12/10 07:00:12;;;;;;;22.15;8.50;;;;;;;8.27;54.71;97438.94;4410356;32;20468;-78
2023/12/10 07:02:39;;;;;;;24.05;8.90;;;;;;;8.00;55.00;97446.09;4410399;32;20147;-78
2023/12/10 07:05:06;;;;;;;24.45;8.63;;;;;;;7.35;57.67;97447.03;4409765;32;20161;-77
2023/12/10 07:07:33;;;;;;;21.58;9.10;;;;;;;7.72;56.50;97444.66;4410231;32;20464;-77
2023/12/10 07:10:00;;;;;;;21.85;8.50;;;;;;;7.74;57.10;97442.03;4410291;32;20129;-77
2023/12/10 07:12:27;;;;;;;17.87;7.05;;;;;;;8.00;55.95;97457.19;4409963;32;20109;-77
2023/12/10 07:14:55;;;;;;;20.52;7.30;;;;;;;7.53;57.47;97459.12;4410182;32;20100;-77
2023/12/10 07:17:22;;;;;;;20.88;7.45;;;;;;;7.38;58.33;97455.44;4409118;32;20163;-76
2023/12/10 07:19:49;;;;;;;19.75;8.00;;;;;;;7.11;59.36;97453.94;4409963;32;20086;-77
2023/12/10 07:22:16;;;;;;;21.58;8.32;;;;;;;7.08;59.59;97451.50;4410104;32;20089;-77
2023/12/10 07:24:43;;;;;;;19.83;7.68;;;;;;;7.01;60.27;97442.34;4410051;32;20150;-76
2023/12/10 07:27:10;;;;;;;21.50;8.15;;;;;;;7.15;60.24;97445.25;4409799;32;20116;-76
2023/12/10 07:29:37;;;;;;;16.75;6.95;;;;;;;7.02;61.32;97454.28;4410103;32;20095;-76
2023/12/10 07:32:04;;;;;;;21.08;7.62;;;;;;;6.96;61.37;97457.94;4410242;32;20528;-76
2023/12/10 07:34:31;;;;;;;15.60;6.40;;;;;;;6.91;61.18;97458.13;4409828;32;20093;-76
2023/12/10 07:36:58;;;;;;;17.40;6.53;;;;;;;7.06;60.95;97459.25;4409939;32;20087;-76
2023/12/10 07:39:25;;;;;;;15.48;5.85;;;;;;;6.42;63.13;97464.19;4409992;32;20397;-75
2023/12/10 07:41:52;;;;;;;19.90;7.12;;;;;;;7.08;61.30;97489.97;4393596;32;20101;-76
2023/12/10 07:44:19;;;;;;;14.20;5.40;;;;;;;6.37;63.62;97471.19;4408519;32;20096;-76
2023/12/10 07:46:46;;;;;;;13.85;5.65;;;;;;;6.76;62.43;97475.78;4409728;32;20078;-76
2023/12/10 07:49:13;;;;;;;15.07;5.37;;;;;;;6.57;63.19;97463.63;4409853;32;20098;-76
2023/12/10 07:51:41;;;;;;;13.80;5.18;;;;;;;6.09;64.86;97474.72;4410015;32;20102;-75
2023/12/10 07:54:08;;;;;;;13.73;4.93;;;;;;;5.76;66.52;97486.03;4409776;32;20100;-75
2023/12/10 07:56:35;;;;;;;10.80;4.00;;;;;;;5.39;68.93;97488.91;4409985;32;20163;-75
2023/12/10 07:59:02;;;;;;;11.30;4.53;;;;;;;4.94;71.17;97490.25;4409860;32;20101;-75
2023/12/10 08:01:29;;;;;;;13.02;4.25;;;;;;;4.98;72.11;97490.16;4409577;32;20144;-75
2023/12/10 08:03:57;;;;;;;11.98;4.00;;;;;;;4.82;73.77;97498.28;4410005;32;20137;-75
2023/12/10 08:06:24;;;;;;;11.70;4.57;;;;;;;4.96;73.84;97502.97;4409768;32;20074;-75
2023/12/10 08:08:51;;;;;;;13.32;4.80;;;;;;;4.79;74.42;97506.03;4409420;32;20109;-75
2023/12/10 08:11:18;;;;;;;12.98;5.28;;;;;;;4.27;77.60;97506.63;4409856;32;20116;-75
2023/12/10 08:13:45;;;;;;;13.82;5.00;;;;;;;4.19;79.31;97504.25;4409841;32;20104;-75
2023/12/10 08:16:12;;;;;;;13.48;5.18;;;;;;;4.21;79.45;97506.75;4409355;32;20437;-75
2023/12/10 08:18:39;;;;;;;12.35;4.37;;;;;;;3.96;80.58;97499.75;4409729;32;20121;-75
2023/12/10 08:21:08;;;;;;;12.68;5.15;;;;;;;3.99;81.64;97503.91;4409639;32;20501;-76
2023/12/10 08:23:35;;;;;;;9.82;4.10;;;;;;;3.68;83.27;97499.56;4409513;32;20193;-76
2023/12/10 08:26:03;;;;;;;12.27;4.20;;;;;;;4.11;81.43;97513.81;4409592;32;20077;-76
2023/12/10 08:28:30;;;;;;;12.32;3.83;;;;;;;4.37;80.27;97523.37;4409736;32;20118;-76
2023/12/10 08:30:57;;;;;;;10.25;3.90;;;;;;;4.47;79.37;97535.03;4409395;32;20144;-76
2023/12/10 08:33:24;;;;;;;10.23;4.45;;;;;;;4.47;78.73;97531.63;4409624;32;20078;-76
2023/12/10 08:35:52;;;;;;;12.30;4.00;;;;;;;4.47;78.69;97529.91;4409170;32;20102;-76
2023/12/10 08:38:19;;;;;;;10.88;4.32;;;;;;;4.31;79.83;97531.19;4409351;32;20163;-76
2023/12/10 08:40:46;;;;;;;11.85;4.68;;;;;;;4.41;79.52;97544.56;4409582;32;20102;-76
2023/12/10 08:43:13;;;;;;;11.25;4.10;;;;;;;4.70;77.88;97531.84;4409079;32;20176;-76
2023/12/10 08:45:40;;;;;;;13.95;5.00;;;;;;;4.49;78.66;97537.53;4409348;32;20086;-76
2023/12/10 08:48:07;;;;;;;13.62;5.20;;;;;;;4.75;77.72;97537.66;4409421;32;20442;-76
2023/12/10 08:50:34;;;;;;;15.10;5.20;;;;;;;4.40;79.38;97536.06;4409061;32;20104;-76
2023/12/10 08:53:01;;;;;;;17.20;6.22;;;;;;;4.74;78.04;97550.47;4413631;32;20181;-76
2023/12/10 08:55:28;;;;;;;17.48;6.05;;;;;;;4.90;77.34;97544.91;4414352;32;20090;-76
2023/12/10 08:57:55;;;;;;;16.25;5.90;;;;;;;5.10;76.20;97546.03;4414069;32;20094;-76
2023/12/10 09:00:22;;;;;;;14.63;5.97;;;;;;;5.24;75.76;97538.81;4414354;32;20157;-76
2023/12/10 09:02:49;;;;;;;16.17;6.18;;;;;;;5.45;75.08;97542.47;4413228;32;20233;-76
2023/12/10 09:05:16;;;;;;;16.75;6.07;;;;;;;5.35;74.52;97544.47;4413817;32;20104;-75
2023/12/10 09:07:43;;;;;;;16.42;6.22;;;;;;;5.20;75.86;97558.50;4414229;32;20158;-76
2023/12/10 09:10:10;;;;;;;18.00;6.72;;;;;;;5.33;75.46;97547.94;4414200;32;20113;-76
2023/12/10 09:12:39;;;;;;;16.65;6.15;;;;;;;5.55;74.20;97548.97;4413937;32;20463;-76
2023/12/10 09:15:07;;;;;;;18.12;6.53;;;;;;;5.47;73.72;97551.75;4413897;32;20101;-76
2023/12/10 09:17:34;;;;;;;17.27;7.03;;;;;;;5.70;73.51;97545.94;4414195;32;20114;-76
2023/12/10 09:20:01;;;;;;;17.65;6.10;;;;;;;5.91;71.40;97552.13;4413822;32;20167;-76
2023/12/10 09:22:28;;;;;;;17.35;6.55;;;;;;;5.67;71.96;97563.13;4414073;32;20400;-76
2023/12/10 09:24:56;;;;;;;19.75;7.50;;;;;;;5.50;73.88;97567.00;4413804;32;20156;-77
2023/12/10 09:27:23;;;;;;;19.05;7.78;;;;;;;5.55;73.94;97571.16;4413928;32;20130;-77
2023/12/10 09:29:50;;;;;;;19.50;7.78;;;;;;;5.41;74.19;97580.06;4413856;32;20104;-77
2023/12/10 09:32:20;;;;;;;19.98;7.10;;;;;;;5.39;75.46;97571.63;4413626;32;20101;-77
2023/12/10 09:34:47;;;;;;;21.48;8.00;;;;;;;5.54;74.58;97567.78;4413905;32;20097;-77
2023/12/10 09:37:14;;;;;;;17.48;7.25;;;;;;;5.54;74.29;97575.44;4412545;32;20362;-77
2023/12/10 09:39:41;;;;;;;17.17;6.35;;;;;;;5.46;75.13;97573.12;4413274;32;20094;-77
2023/12/10 09:42:08;;;;;;;16.90;6.40;;;;;;;6.06;72.87;97568.72;4413808;32;20082;-77
2023/12/10 09:44:35;;;;;;;14.65;5.50;;;;;;;5.84;73.10;97567.69;4413757;32;20117;-77
2023/12/10 09:47:08;;;;;;;14.55;5.85;;;;;;;5.76;74.00;97565.41;4413305;32;20134;-76
2023/12/10 09:49:37;;;;;;;14.77;6.10;;;;;;;5.63;74.11;97567.47;4412674;32;20125;-76
2023/12/10 09:52:09;;;;;;;14.77;6.20;;;;;;;5.62;74.37;97580.31;4413652;32;20144;-76
2023/12/10 09:54:39;;;;;;;18.55;7.03;;;;;;;5.66;74.63;97571.69;4396945;32;20366;-76
2023/12/10 09:57:06;;;;;;;16.15;6.70;;;;;;;5.79;74.47;97573.81;4410550;32;20116;-76
2023/12/10 09:59:35;;;;;;;19.02;7.65;;;;;;;5.50;74.98;97582.38;4413504;32;20085;-76
2023/12/10 10:02:04;;;;;;;17.60;6.97;;;;;;;5.60;75.30;97582.94;4413104;32;20372;-76
2023/12/10 10:04:31;;;;;;;15.05;6.05;;;;;;;5.99;73.66;97588.56;4410102;32;20078;-76
2023/12/10 10:06:58;;;;;;;16.27;6.25;;;;;;;5.76;74.39;97584.16;4410238;32;20118;-76
2023/12/10 10:09:25;;;;;;;15.80;5.82;;;;;;;5.78;74.52;97587.50;4410744;32;20108;-76
2023/12/10 10:12:03;;;;;;;;;;;;;;;5.85;73.81;97582.16;4410999;32;20545;-77
2023/12/10 10:14:30;;;;;;;15.27;5.83;;;;;;;5.84;75.25;97588.19;4396794;32;20021;-77
2023/12/10 10:16:57;;;;;;;14.90;5.97;;;;;;;6.38;73.14;97595.88;4409180;32;20118;-77
2023/12/10 10:19:25;;;;;;;16.60;6.70;;;;;;;6.76;70.42;97594.56;4395860;32;20170;-77
2023/12/10 10:21:53;;;;;;;16.20;6.25;;;;;;;7.46;68.58;97598.88;4410264;32;20167;-77
2023/12/10 10:24:21;;;;;;;15.88;6.40;;;;;;;7.29;67.91;97612.34;4410560;32;20082;-77
2023/12/10 10:26:49;;;;;;;17.45;7.22;;;;;;;7.60;67.51;97629.19;4410407;32;20120;-77
2023/12/10 10:29:16;;;;;;;14.07;6.12;;;;;;;7.87;65.36;97622.13;4409121;32;20140;-77
2023/12/10 10:31:44;;;;;;;17.05;6.47;;;;;;;8.40;64.25;97623.47;4410498;32;20165;-77
2023/12/10 10:34:12;;;;;;;15.52;6.87;;;;;;;8.33;63.74;97626.31;4410529;32;20452;-77
2023/12/10 10:36:39;;;;;;;17.37;7.43;;;;;;;8.02;64.77;97630.09;4409961;32;20147;-77
2023/12/10 10:39:07;;;;;;;15.68;7.07;;;;;;;7.95;64.99;97622.69;4409033;32;20102;-77
2023/12/10 10:41:35;;;;;;;17.73;6.37;;;;;;;8.09;64.70;97621.28;4410385;32;20086;-77
2023/12/10 10:44:02;;;;;;;15.32;6.43;;;;;;;8.22;64.77;97634.47;4410182;32;20140;-77
2023/12/10 10:46:29;;;;;;;16.50;6.47;;;;;;;8.67;64.50;97631.78;4410336;32;20500;-77
2023/12/10 10:48:56;;;;;;;15.48;6.65;;;;;;;9.14;61.94;97630.63;4406765;32;20461;-77
2023/12/10 10:51:28;;;;;;;15.80;6.62;;;;;;;9.22;62.16;97628.56;4408787;32;20165;-77
2023/12/10 10:53:57;;;;;;;15.35;6.30;;;;;;;9.67;60.49;97640.28;4409266;32;20097;-78
2023/12/10 10:56:25;;;;;;;17.73;7.12;;;;;;;10.09;59.48;97642.62;4408828;32;20156;-77
2023/12/10 10:58:52;;;;;;;17.40;7.30;;;;;;;10.14;59.34;97645.84;4409153;32;20164;-78
2023/12/10 11:01:42;;;;;;;15.80;6.97;;;;;;;10.66;60.56;97641.62;4410371;32;20496;-78
2023/12/10 11:04:13;;;;;;;16.02;6.95;;;;;;;11.09;60.30;97647.19;4396474;32;20090;-78
2023/12/10 11:06:41;;;;;;;16.77;7.25;;;;;;;11.80;57.91;97652.09;4410081;32;20093;-78
2023/12/10 11:09:08;;;;;;;16.73;7.20;;;;;;;12.26;55.55;97650.44;4409029;32;20638;-77
2023/12/10 11:11:41;;;;;;;18.65;8.18;;;;;;;12.52;55.87;97653.28;4396128;32;20110;-77
2023/12/10 11:14:22;;;;;;;15.93;6.72;;;;;;;12.54;54.07;97651.44;4409894;32;20121;-77
2023/12/10 11:16:50;;;;;;;16.30;7.37;;;;;;;12.90;53.71;97659.69;4410016;32;20151;-78
2023/12/10 11:19:18;;;;;;;17.00;7.15;;;;;;;13.05;52.53;97660.56;4409883;32;20158;-77
2023/12/10 11:21:46;;;;;;;16.27;6.37;;;;;;;12.84;52.41;97657.47;4410281;32;20160;-77
2023/12/10 11:24:13;;;;;;;16.08;5.72;;;;;;;12.51;51.82;97657.62;4409879;32;20128;-77
2023/12/10 11:26:40;;;;;;;17.33;6.10;;;;;;;11.73;54.23;97661.91;4410048;32;20173;-77
2023/12/10 11:29:07;;;;;;;16.12;6.50;;;;;;;11.25;56.22;97662.72;4410225;32;20129;-77
2023/12/10 11:31:37;;;;;;;16.05;6.25;;;;;;;10.76;55.95;97660.06;4409781;32;20133;-77
2023/12/10 11:34:04;;;;;;;13.98;6.85;;;;;;;11.07;56.78;97668.84;4410146;32;20133;-77
2023/12/10 11:36:31;;;;;;;15.23;6.32;;;;;;;10.75;57.51;97675.63;4409995;32;20085;-77
2023/12/10 11:39:11;;;;;;;14.27;6.18;;;;;;;11.14;56.87;97673.59;4409530;32;20688;-78
2023/12/10 11:41:40;;;;;;;13.95;6.12;;;;;;;11.01;56.56;97682.88;4410172;32;20082;-77
2023/12/10 11:44:25;;;;;;;15.98;6.87;;;;;;;11.03;55.64;97675.91;4410074;32;20109;-77
2023/12/10 11:46:52;;;;;;;16.45;6.50;;;;;;;11.46;55.28;97691.78;4409622;32;20144;-77
2023/12/10 11:49:23;;;;;;;14.48;6.90;;;;;;;11.64;53.97;97690.00;4410116;32;20385;-77
2023/12/10 11:51:51;;;;;;;17.27;7.40;;;;;;;11.92;52.97;97697.16;4408597;32;20156;-77
2023/12/10 11:54:18;;;;;;;18.00;6.97;;;;;;;11.42;54.89;97706.59;4409677;32;20422;-77
2023/12/10 11:56:45;;;;;;;17.77;6.30;;;;;;;11.58;54.63;97712.63;4409790;32;20573;-77
2023/12/10 11:59:12;;;;;;;19.08;7.00;;;;;;;11.74;53.74;97709.28;4409744;32;20586;-77
2023/12/10 12:01:39;;;;;;;16.05;6.97;;;;;;;11.82;53.53;97718.31;4408760;32;20188;-77
2023/12/10 12:04:07;;;;;;;15.77;6.18;;;;;;;12.37;52.42;97711.91;4408694;32;20117;-77
2023/12/10 12:06:39;;;;;;;18.20;7.10;;;;;;;12.42;51.54;97710.72;4409389;32;20405;-77
2023/12/10 12:09:08;;;;;;;16.87;7.12;;;;;;;12.28;51.45;97715.84;4409758;32;20150;-77
2023/12/10 12:11:35;;;;;;;16.70;7.28;;;;;;;11.56;53.00;97711.88;4396190;32;20161;-77
2023/12/10 12:14:02;;;;;;;17.20;6.72;;;;;;;11.61;52.75;97716.84;4409541;32;20074;-77
2023/12/10 12:16:29;;;;;;;17.10;6.05;;;;;;;10.85;55.18;97715.53;4409737;32;20136;-77
2023/12/10 12:18:56;;;;;;;17.98;6.47;;;;;;;10.12;57.01;97712.94;4409840;32;20107;-77
2023/12/10 12:21:23;;;;;;;17.15;6.72;;;;;;;10.37;57.10;97716.97;4409507;32;20465;-77
2023/12/10 12:23:50;;;;;;;16.25;6.90;;;;;;;10.13;57.89;97717.19;4409764;32;20097;-77
2023/12/10 12:26:17;;;;;;;17.95;6.68;;;;;;;9.92;58.86;97718.16;4408695;32;20425;-77
2023/12/10 12:28:44;;;;;;;16.48;7.30;;;;;;;9.92;59.13;97727.66;4409392;32;20162;-77
2023/12/10 12:31:14;;;;;;;16.58;7.00;;;;;;;9.74;59.89;97729.28;4393804;32;20086;-77
2023/12/10 12:33:41;;;;;;;14.30;6.50;;;;;;;10.14;58.95;97726.59;4408326;32;20125;-77
2023/12/10 12:36:08;;;;;;;16.50;6.50;;;;;;;9.98;59.44;97733.34;4409166;32;20152;-77
2023/12/10 12:38:36;;;;;;;15.57;6.07;;;;;;;10.31;58.27;97730.16;4409351;32;20108;-77
2023/12/10 12:41:03;;;;;;;16.42;6.05;;;;;;;10.45;57.84;97739.84;4409683;32;20082;-77
2023/12/10 12:43:30;;;;;;;13.23;5.45;;;;;;;10.34;58.23;97740.34;4409162;32;20094;-77
2023/12/10 12:45:58;;;;;;;14.43;5.43;;;;;;;10.58;57.36;97734.03;4409385;32;20473;-77
2023/12/10 12:48:25;;;;;;;15.05;5.95;;;;;;;10.34;58.39;97727.44;4409237;32;20476;-77
2023/12/10 12:50:52;;;;;;;15.00;5.30;;;;;;;10.10;59.04;97734.53;4409315;32;20087;-77
2023/12/10 12:53:19;;;;;;;16.10;5.60;;;;;;;10.35;57.61;97729.94;4409258;32;20369;-77
2023/12/10 12:55:46;;;;;;;14.43;5.65;;;;;;;10.40;58.16;97730.56;4408824;32;20165;-78
2023/12/10 12:58:13;;;;;;;12.05;4.82;;;;;;;10.20;58.62;97728.03;4409264;32;20094;-78
2023/12/10 13:00:40;;;;;;;13.90;5.55;;;;;;;10.03;59.51;97731.41;4409392;32;20120;-78
2023/12/10 13:03:07;;;;;;;13.25;5.75;;;;;;;10.37;59.04;97733.28;4408959;32;20086;-78
2023/12/10 13:05:34;;;;;;;15.32;5.28;;;;;;;10.31;59.02;97732.72;4409072;32;20121;-77
2023/12/10 13:08:01;;;;;;;15.38;5.87;;;;;;;10.68;58.35;97732.66;4409013;32;20586;-77
2023/12/10 13:10:28;;;;;;;12.32;4.87;;;;;;;11.25;55.95;97738.44;4408803;32;20086;-77
2023/12/10 13:12:55;;;;;;;14.05;5.10;;;;;;;11.26;55.53;97741.88;4408930;32;20078;-77
2023/12/10 13:15:22;;;;;;;15.38;5.12;;;;;;;11.23;55.95;97749.78;4409062;32;20085;-77
2023/12/10 13:17:49;;;;;;;12.80;4.60;;;;;;;11.02;55.86;97744.75;4408532;32;20417;-77
2023/12/10 13:20:18;;;;;;;16.02;4.78;;;;;;;10.95;56.29;97747.72;4409048;32;20104;-77
2023/12/10 13:22:45;;;;;;;15.15;5.10;;;;;;;10.83;56.60;97748.31;4408930;32;20177;-77
2023/12/10 13:25:12;;;;;;;14.25;5.32;;;;;;;10.49;57.59;97749.94;4408481;32;20126;-77
2023/12/10 13:27:39;;;;;;;15.32;4.90;;;;;;;9.95;59.62;97746.38;4408925;32;20138;-77
2023/12/10 13:30:07;;;;;;;11.70;4.70;;;;;;;10.27;57.99;97752.66;4408877;32;20435;-77
2023/12/10 13:32:36;;;;;;;15.65;4.90;;;;;;;10.17;59.14;97753.97;4407292;32;20426;-78
2023/12/10 13:35:03;;;;;;;15.73;4.35;;;;;;;9.60;60.25;97770.28;4408905;32;20089;-78
2023/12/10 13:37:30;;;;;;;14.13;4.07;;;;;;;10.20;58.63;97771.03;4408537;32;20414;-77
2023/12/10 13:39:58;;;;;;;14.75;4.05;;;;;;;10.63;57.30;97773.34;4411041;32;20087;-78
2023/12/10 13:42:25;;;;;;;10.90;3.85;;;;;;;10.14;59.17;97772.16;4410818;32;20086;-78
2023/12/10 13:44:52;;;;;;;11.18;4.15;;;;;;;9.78;60.16;97769.47;4410531;32;20112;-78
2023/12/10 13:47:19;;;;;;;12.02;3.62;;;;;;;8.79;63.54;97769.34;4397295;32;20098;-77
2023/12/10 13:49:46;;;;;;;10.13;3.45;;;;;;;9.01;63.07;97768.47;4410976;32;20082;-78
2023/12/10 13:52:13;;;;;;;12.98;4.12;;;;;;;8.32;66.77;97776.31;4410250;32;20082;-78
2023/12/10 13:54:40;;;;;;;14.02;3.75;;;;;;;8.42;65.90;97777.66;4396936;32;20169;-78
2023/12/10 13:57:07;;;;;;;11.40;4.22;;;;;;;8.50;65.37;97782.50;4410709;32;20098;-78
2023/12/10 13:59:34;;;;;;;12.48;3.60;;;;;;;8.39;66.04;97786.31;4410381;32;20471;-78
2023/12/10 14:02:01;;;;;;;13.02;3.92;;;;;;;8.73;65.04;97787.59;4410932;32;20087;-78
2023/12/10 14:04:28;;;;;;;11.73;3.72;;;;;;;9.59;61.92;97792.63;4410766;32;20515;-78
2023/12/10 14:06:55;;;;;;;11.23;3.65;;;;;;;9.01;63.64;97791.63;4410351;32;20146;-78
2023/12/10 14:09:25;;;;;;;14.73;3.92;;;;;;;9.24;63.19;97805.22;4410854;32;20085;-77
2023/12/10 14:11:53;;;;;;;13.95;3.70;;;;;;;9.37;62.36;97815.03;4410644;32;20082;-77
2023/12/10 14:14:20;;;;;;;18.10;4.65;;;;;;;9.46;62.11;97823.22;4410367;32;20160;-77
2023/12/10 14:16:47;;;;;;;12.23;4.28;;;;;;;9.41;62.26;97819.16;4410623;32;20094;-77
2023/12/10 14:19:14;;;;;;;13.30;4.22;;;;;;;9.34;61.93;97826.28;4410712;32;20399;-78
2023/12/10 14:21:41;;;;;;;13.48;4.85;;;;;;;9.17;62.34;97839.03;4410303;32;20459;-77
2023/12/10 14:24:09;;;;;;;15.32;4.50;;;;;;;9.40;61.39;97838.91;4410763;32;20441;-78
2023/12/10 14:26:36;;;;;;;17.30;4.85;;;;;;;9.28;61.39;97836.84;4402918;32;20110;-78
2023/12/10 14:29:03;;;;;;;17.40;4.75;;;;;;;9.40;61.35;97844.06;4410640;32;20100;-78
2023/12/10 14:31:31;;;;;;;17.23;4.53;;;;;;;8.78;62.78;97841.44;4410444;32;20104;-78
2023/12/10 14:33:58;;;;;;;14.50;4.57;;;;;;;9.13;62.69;97843.44;4410204;32;20154;-78
2023/12/10 14:36:25;;;;;;;12.75;4.57;;;;;;;9.56;60.81;97847.66;4410528;32;20090;-78
2023/12/10 14:38:54;;;;;;;14.35;5.03;;;;;;;9.81;60.06;97854.38;4410237;32;20090;-78
2023/12/10 14:41:21;;;;;;;12.52;5.03;;;;;;;9.79;59.18;97843.31;4410263;32;20106;-78
2023/12/10 14:43:49;;;;;;;19.08;7.03;;;;;;;9.71;58.54;97841.06;4410476;32;20093;-77
2023/12/10 14:46:16;;;;;;;23.08;7.87;;;;;;;9.23;58.74;97849.91;4394778;32;20390;-78
2023/12/10 14:48:43;;;;;;;19.12;8.27;;;;;;;8.29;61.48;97856.91;4408744;32;20452;-78
2023/12/10 14:51:10;;;;;;;21.35;7.90;;;;;;;8.39;61.59;97858.28;4409908;32;20105;-78
2023/12/10 14:53:37;;;;;;;21.23;8.30;;;;;;;8.17;62.29;97870.22;4410296;32;20111;-78
2023/12/10 14:56:05;;;;;;;21.95;8.23;;;;;;;7.80;63.36;97863.81;4409963;32;20574;-77
2023/12/10 14:58:32;;;;;;;21.37;8.73;;;;;;;7.32;65.21;97875.72;4410298;32;20164;-77
2023/12/10 15:00:59;;;;;;;18.20;7.55;;;;;;;6.29;69.59;97873.72;4410549;32;20070;-78